createdAt,value
2022-12-27T11:40:25.822Z,3.50
2022-12-27T11:44:32.073Z,3.50
2022-12-27T11:48:42.723Z,3.60
2022-12-27T11:53:30.330Z,3.60
2022-12-27T11:57:56.783Z,3.70
2022-12-27T12:02:17.487Z,3.80
2022-12-27T12:07:15.270Z,3.80
2022-12-27T12:11:55.321Z,3.90
2022-12-27T12:16:19.671Z,3.90
2022-12-27T12:21:24.158Z,3.80
2022-12-27T12:25:51.386Z,3.90
2022-12-27T12:30:27.649Z,3.80
2022-12-27T12:34:52.065Z,3.90
2022-12-27T12:39:49.310Z,3.90
2022-12-27T12:44:18.252Z,3.90
2022-12-27T12:49:03.851Z,3.90
2022-12-27T12:53:57.129Z,3.80
2022-12-27T12:58:35.160Z,3.80
2022-12-27T13:03:14.427Z,3.90
2022-12-27T13:07:52.521Z,3.80
2022-12-27T13:11:59.192Z,3.70
2022-12-27T13:16:30.701Z,3.70
2022-12-27T13:21:00.347Z,3.70
2022-12-27T13:25:35.191Z,3.60
2022-12-27T13:30:16.265Z,3.50
2022-12-27T13:34:49.519Z,3.40
2022-12-27T13:39:28.989Z,3.40
2022-12-27T13:44:09.662Z,3.50
2022-12-27T13:49:04.389Z,3.70
2022-12-27T13:53:25.875Z,3.70
2022-12-27T13:57:52.891Z,3.80
2022-12-27T14:02:34.653Z,3.90
2022-12-27T14:07:01.571Z,3.70
2022-12-27T14:11:37.626Z,3.60
2022-12-27T14:16:06.578Z,3.50
2022-12-27T14:20:18.549Z,3.40
2022-12-27T14:25:03.670Z,3.30
2022-12-27T14:29:57.670Z,3.10
2022-12-27T14:34:02.553Z,3.00
2022-12-27T14:38:07.862Z,3.00
2022-12-27T14:42:35.435Z,2.80
2022-12-27T14:46:40.805Z,2.60
2022-12-27T14:51:01.343Z,2.50
2022-12-27T14:55:35.928Z,2.40
2022-12-27T14:59:40.774Z,2.30
2022-12-27T15:04:22.494Z,2.20
2022-12-27T15:09:18.190Z,2.20
2022-12-27T15:13:29.069Z,2.10
2022-12-27T15:17:40.362Z,2.00
2022-12-27T15:22:19.959Z,1.80
2022-12-27T15:26:47.529Z,1.70
2022-12-27T15:31:03.944Z,1.60
2022-12-27T15:35:44.966Z,1.60
2022-12-27T15:39:48.224Z,1.60
2022-12-27T15:44:06.841Z,1.50
2022-12-27T15:48:11.996Z,1.50
2022-12-27T15:52:44.268Z,1.40
2022-12-27T15:56:57.205Z,1.30
2022-12-27T16:01:27.281Z,1.20
2022-12-27T16:05:52.812Z,1.20
2022-12-27T16:09:59.076Z,1.10
2022-12-27T16:14:31.756Z,1.10
2022-12-27T16:18:53.587Z,1.00
2022-12-27T16:22:58.224Z,1.00
2022-12-27T16:27:04.989Z,1.00
2022-12-27T16:31:12.141Z,0.90
2022-12-27T16:35:16.364Z,0.80
2022-12-27T16:39:24.717Z,0.80
2022-12-27T16:44:01.382Z,0.70
2022-12-27T16:48:28.101Z,0.70
2022-12-27T16:53:14.051Z,0.60
2022-12-27T16:57:56.296Z,0.60
2022-12-27T17:02:31.818Z,0.60
2022-12-27T17:06:37.827Z,0.50
2022-12-27T17:10:47.561Z,0.50
2022-12-27T17:15:18.086Z,0.60
2022-12-27T17:19:40.834Z,0.60
2022-12-27T17:23:49.047Z,0.60
2022-12-27T17:28:25.938Z,0.60
2022-12-27T18:01:33.301Z,0.50
2022-12-27T18:05:43.871Z,0.50
2022-12-27T18:46:05.407Z,0.40
2022-12-27T19:08:20.174Z,0.60
2022-12-27T19:28:10.421Z,0.50
2022-12-27T19:32:12.543Z,0.50
2022-12-27T19:36:15.090Z,0.50
2022-12-27T19:40:20.546Z,0.50
2022-12-27T19:44:25.603Z,0.50
2022-12-27T19:48:30.249Z,0.50
2022-12-27T19:52:32.821Z,0.50
2022-12-27T19:56:38.682Z,0.50
2022-12-27T20:00:40.648Z,0.40
2022-12-27T20:04:44.949Z,0.40
2022-12-27T20:08:50.535Z,0.40
2022-12-27T20:13:00.405Z,0.40
2022-12-27T20:17:05.747Z,0.30
2022-12-27T20:21:13.224Z,0.30
2022-12-27T20:25:20.704Z,0.30
2022-12-27T20:29:23.989Z,0.20
2022-12-27T20:33:54.435Z,0.20
2022-12-27T20:37:56.458Z,0.10
2022-12-27T20:48:17.488Z,0.00
2022-12-27T20:52:19.481Z,0.00
2022-12-27T20:56:46.836Z,-0.10
2022-12-27T21:00:51.870Z,-0.10
2022-12-27T21:05:09.244Z,-0.10
2022-12-27T21:09:15.827Z,-0.10
2022-12-27T21:13:18.536Z,-0.10
2022-12-27T21:17:21.400Z,-0.20
2022-12-27T21:21:42.711Z,-0.20
2022-12-27T21:25:44.727Z,-0.20
2022-12-27T21:29:52.086Z,-0.30
2022-12-27T21:33:54.034Z,-0.30
2022-12-27T21:38:07.562Z,-0.30
2022-12-27T21:42:09.740Z,-0.30
2022-12-27T21:46:23.706Z,-0.40
2022-12-27T21:50:52.460Z,-0.40
2022-12-27T21:54:55.007Z,-0.40
2022-12-27T21:59:05.892Z,-0.50
2022-12-27T22:03:08.668Z,-0.50
2022-12-27T22:07:10.733Z,-0.60
2022-12-27T22:11:25.071Z,-0.50
2022-12-27T22:15:27.043Z,-0.50
2022-12-27T22:19:31.309Z,-0.40
2022-12-27T22:23:34.818Z,-0.30
2022-12-27T22:27:36.845Z,-0.30
2022-12-27T22:31:40.357Z,-0.30
2022-12-27T22:35:42.496Z,-0.20
2022-12-27T22:39:44.492Z,-0.20
2022-12-27T22:44:11.425Z,-0.20
2022-12-27T22:48:13.723Z,-0.20
2022-12-27T22:52:19.909Z,-0.20
2022-12-27T22:56:40.242Z,-0.20
2022-12-27T23:00:43.918Z,-0.20
2022-12-27T23:04:46.215Z,-0.20
2022-12-27T23:08:49.809Z,-0.30
2022-12-27T23:12:52.028Z,-0.40
2022-12-27T23:16:55.500Z,-0.40
2022-12-27T23:21:20.785Z,-0.50
2022-12-27T23:25:46.889Z,-0.50
2022-12-27T23:30:15.391Z,-0.60
2022-12-27T23:34:19.287Z,-0.70
2022-12-27T23:38:26.814Z,-0.80
2022-12-27T23:42:28.805Z,-0.80
2022-12-27T23:46:35.058Z,-0.80
2022-12-27T23:50:42.995Z,-0.90
2022-12-27T23:54:44.939Z,-0.90
2022-12-27T23:58:47.716Z,-0.90
